Superstar Express — 3FFX9 — position and weather

sailwx.info

Track history (hours):
 
Tides and Currents Weather Stations Pressure Air Temp Water Temp Dewpoint Dewpoint Depression Visibility Wind Speed Wind Dir Waves Ship Positions

Superstar Express

Operator: P & O Irish Sea

Last reported at 2017-Aug-22 21:48 UTC. Time now 2017-Aug-22 22:27 UTC.
Position S 32°26' E 152°49'.

Length 183 m; draft 11.1 m.

Type: Cargo ship. MMSI: 351360000.

Date/timePositionNaut miles runAvg speedWind from/ knotsBaromVisibWave heightAir tempDewpointWater temp
2017-Aug-22 21:48S 32°26' E 152°49'410.1
2017-Aug-22 21:23S 32°31' E 152°47'410.4
2017-Aug-22 21:01S 32°34' E 152°46'510.5
2017-Aug-22 20:31S 32°39' E 152°43'510.5
2017-Aug-22 20:01S 32°44' E 152°41'5 9.4
2017-Aug-22 19:30S 32°46' E 152°36'5 9.7
2017-Aug-22 19:01S 32°48' E 152°31'5 9.7
2017-Aug-22 18:31S 32°50' E 152°26'5 9.7
2017-Aug-22 18:01S 32°52' E 152°21'5 9.6
2017-Aug-22 17:31S 32°54' E 152°15'5 9.6
2017-Aug-22 17:01S 32°56' E 152°10'5 9.4
2017-Aug-22 16:31S 32°57' E 152°05'5 9.5
2017-Aug-22 16:01S 32°59' E 151°60'5 9.6
2017-Aug-22 15:31S 33°01' E 151°54'5 9.3
2017-Aug-22 15:01S 32°58' E 151°50'4 7.1
2017-Aug-22 14:31S 32°55' E 151°48'2 3.7
2017-Aug-22 14:00S 32°54' E 151°46'1 0.1
2017-Aug-21 22:53S 32°53' E 151°45'0 0.0
2017-Aug-21 22:26S 32°53' E 151°45'0 0.0
2017-Aug-21 21:59S 32°53' E 151°45'0 0.0
2017-Aug-21 21:02S 32°53' E 151°45'0 0.0
2017-Aug-21 20:59S 32°53' E 151°45'0 0.0
2017-Aug-21 20:29S 32°53' E 151°45'0 0.0
2017-Aug-21 19:59S 32°53' E 151°45'0 0.0
2017-Aug-21 19:29S 32°53' E 151°45'0 0.0
2017-Aug-21 18:59S 32°53' E 151°45'0 0.6
2017-Aug-21 18:30S 32°53' E 151°45'2 2.9
2017-Aug-21 18:00S 32°54' E 151°46'3 5.9
2017-Aug-21 17:30S 32°55' E 151°50'5 9.5
2017-Aug-21 17:00S 32°59' E 151°53'1 2.6
2017-Aug-21 16:30S 32°58' E 151°54'1 1.0
2017-Aug-21 16:00S 32°58' E 151°55'1 1.0
2017-Aug-21 15:30S 32°58' E 151°55'1 1.1
2017-Aug-21 15:00S 32°57' E 151°56'1 1.7
2017-Aug-21 14:30S 32°57' E 151°57'2 3.8
2017-Aug-21 14:00S 32°57' E 151°59'3 5.8
2017-Aug-21 13:30S 32°56' E 152°02'3 6.1
2017-Aug-21 13:00S 32°54' E 152°05'2 4.0
2017-Aug-21 12:30S 32°53' E 152°07'2 4.9
2017-Aug-21 12:00S 32°51' E 152°09'3 5.4
2017-Aug-21 11:30S 32°50' E 152°12'3 6.3
2017-Aug-21 11:00S 32°48' E 152°15'3 6.0
2017-Aug-21 10:30S 32°46' E 152°18'3 5.9
2017-Aug-21 10:00S 32°44' E 152°21'4 7.3
2017-Aug-21 09:30S 32°42' E 152°24'713.2
2017-Aug-21 09:00S 32°38' E 152°31'713.8
2017-Aug-21 08:30S 32°34' E 152°38'713.3
2017-Aug-21 07:58S 32°30' E 152°44'613.0
2017-Aug-21 07:30S 32°25' E 152°47'  
Track history (hours):
 
Tides and Currents Weather Stations Pressure Air Temp Water Temp Dewpoint Dewpoint Depression Visibility Wind Speed Wind Dir Waves Ship Positions

Superstar Express

Operator: P & O Irish Sea

Last reported at 2017-Aug-22 21:48 UTC. Time now 2017-Aug-22 22:27 UTC.
Position S 32°26' E 152°49'.

Length 183 m; draft 11.1 m.

Type: Cargo ship. MMSI: 351360000.

Date/timePositionNaut miles runAvg speedWind from/ knotsBaromVisibWave heightAir tempDewpointWater temp
2017-Aug-22 21:48S 32°26' E 152°49'410.1
2017-Aug-22 21:23S 32°31' E 152°47'410.4
2017-Aug-22 21:01S 32°34' E 152°46'510.5
2017-Aug-22 20:31S 32°39' E 152°43'510.5
2017-Aug-22 20:01S 32°44' E 152°41'5 9.4
2017-Aug-22 19:30S 32°46' E 152°36'5 9.7
2017-Aug-22 19:01S 32°48' E 152°31'5 9.7
2017-Aug-22 18:31S 32°50' E 152°26'5 9.7
2017-Aug-22 18:01S 32°52' E 152°21'5 9.6
2017-Aug-22 17:31S 32°54' E 152°15'5 9.6
2017-Aug-22 17:01S 32°56' E 152°10'5 9.4
2017-Aug-22 16:31S 32°57' E 152°05'5 9.5
2017-Aug-22 16:01S 32°59' E 151°60'5 9.6
2017-Aug-22 15:31S 33°01' E 151°54'5 9.3
2017-Aug-22 15:01S 32°58' E 151°50'4 7.1
2017-Aug-22 14:31S 32°55' E 151°48'2 3.7
2017-Aug-22 14:00S 32°54' E 151°46'1 0.1
2017-Aug-21 22:53S 32°53' E 151°45'0 0.0
2017-Aug-21 22:26S 32°53' E 151°45'0 0.0
2017-Aug-21 21:59S 32°53' E 151°45'0 0.0
2017-Aug-21 21:02S 32°53' E 151°45'0 0.0
2017-Aug-21 20:59S 32°53' E 151°45'0 0.0
2017-Aug-21 20:29S 32°53' E 151°45'0 0.0
2017-Aug-21 19:59S 32°53' E 151°45'0 0.0
2017-Aug-21 19:29S 32°53' E 151°45'0 0.0
2017-Aug-21 18:59S 32°53' E 151°45'0 0.6
2017-Aug-21 18:30S 32°53' E 151°45'2 2.9
2017-Aug-21 18:00S 32°54' E 151°46'3 5.9
2017-Aug-21 17:30S 32°55' E 151°50'5 9.5
2017-Aug-21 17:00S 32°59' E 151°53'1 2.6
2017-Aug-21 16:30S 32°58' E 151°54'1 1.0
2017-Aug-21 16:00S 32°58' E 151°55'1 1.0
2017-Aug-21 15:30S 32°58' E 151°55'1 1.1
2017-Aug-21 15:00S 32°57' E 151°56'1 1.7
2017-Aug-21 14:30S 32°57' E 151°57'2 3.8
2017-Aug-21 14:00S 32°57' E 151°59'3 5.8
2017-Aug-21 13:30S 32°56' E 152°02'3 6.1
2017-Aug-21 13:00S 32°54' E 152°05'2 4.0
2017-Aug-21 12:30S 32°53' E 152°07'2 4.9
2017-Aug-21 12:00S 32°51' E 152°09'3 5.4
2017-Aug-21 11:30S 32°50' E 152°12'3 6.3
2017-Aug-21 11:00S 32°48' E 152°15'3 6.0
2017-Aug-21 10:30S 32°46' E 152°18'3 5.9
2017-Aug-21 10:00S 32°44' E 152°21'4 7.3
2017-Aug-21 09:30S 32°42' E 152°24'713.2
2017-Aug-21 09:00S 32°38' E 152°31'713.8
2017-Aug-21 08:30S 32°34' E 152°38'713.3
2017-Aug-21 07:58S 32°30' E 152°44'613.0
2017-Aug-21 07:30S 32°25' E 152°47'  

Dump ship's entire track history